Terminal Aerodrome Forecast
Issued by NWS

Home | Current Version | Previous Version | Text Only | Print | Product List | Glossary On
Versions: 1 2 3 4 5 6 7 8 9 10 11 12 13 14 15 16 17 18
000
FTUS45 KBOU 201127
TAFAPA
TAF
KAPA 201127Z 2012/2112 21012G22KT P6SM SCT220
     FM201900 05010KT P6SM FEW070 SCT120 BKN180
     FM210200 05011KT P6SM SCT015 BKN030 OVC050
      TEMPO 2104/2107 2SM -FZDZ BR BKN008 OVC016
     FM210700 03011KT 1SM -FZDZ BR SCT004 OVC008
      TEMPO 2109/2112 1/2SM -SN FZFG OVC004=

USA.gov is the U.S. government's official web portal to all federal, state and local government web resources and services.